createdAt,value
2023-01-23T00:01:04.550Z,99293.22
2023-01-23T00:03:07.535Z,99297.56
2023-01-23T00:05:11.433Z,99294.22
2023-01-23T00:07:14.418Z,99299.25
2023-01-23T00:09:17.480Z,99289.91
2023-01-23T00:11:21.978Z,99292.47
2023-01-23T00:13:25.288Z,99299.25
2023-01-23T00:15:32.975Z,99300.91
2023-01-23T00:17:35.956Z,99303.44
2023-01-23T00:19:38.884Z,99301.75
2023-01-23T00:21:41.892Z,99298.28
2023-01-23T00:23:46.127Z,99299.13
2023-01-23T00:25:49.054Z,99298.22
2023-01-23T00:27:52.154Z,99306.13
2023-01-23T00:29:55.355Z,99300.91
2023-01-23T00:31:59.756Z,99306.91
2023-01-23T00:34:04.301Z,99306.88
2023-01-23T00:36:08.318Z,99305.94
2023-01-23T00:38:11.324Z,99303.31
2023-01-23T00:40:15.015Z,99305.84
2023-01-23T00:42:18.200Z,99306.72
2023-01-23T00:44:21.145Z,99309.25
2023-01-23T00:46:24.246Z,99309.19
2023-01-23T00:48:28.870Z,99309.16
2023-01-23T00:50:32.155Z,99304.88
2023-01-23T00:52:35.134Z,99307.47
2023-01-23T00:54:39.344Z,99306.59
2023-01-23T00:56:42.653Z,99306.56
2023-01-23T00:58:45.812Z,99299.66
2023-01-23T01:00:48.984Z,99302.28
2023-01-23T01:02:54.027Z,99304.03
2023-01-23T01:04:58.681Z,99304.16
2023-01-23T01:07:01.765Z,99296.88
2023-01-23T01:09:05.561Z,99304.59
2023-01-23T01:11:09.307Z,99313.97
2023-01-23T01:13:12.749Z,99316.53
2023-01-23T01:15:18.499Z,99319.09
2023-01-23T01:17:21.612Z,99321.56
2023-01-23T01:19:24.623Z,99317.31
2023-01-23T01:21:31.502Z,99321.56
2023-01-23T01:23:34.571Z,99332.75
2023-01-23T01:25:37.684Z,99332.72
2023-01-23T01:27:40.769Z,99333.59
2023-01-23T01:29:43.743Z,99331.81
2023-01-23T01:31:46.782Z,99338.75
2023-01-23T01:33:50.602Z,99336.31
2023-01-23T01:35:56.550Z,99337.13
2023-01-23T01:38:01.018Z,99333.75
2023-01-23T01:40:04.759Z,99335.47
2023-01-23T01:42:07.748Z,99340.59
2023-01-23T01:44:14.807Z,99350.00
2023-01-23T01:46:20.689Z,99340.59
2023-01-23T01:48:26.919Z,99350.84
2023-01-23T01:50:29.989Z,99337.13
2023-01-23T01:52:33.021Z,99342.28
2023-01-23T01:54:41.332Z,99345.69
2023-01-23T01:56:48.944Z,99340.56
2023-01-23T01:58:53.460Z,99349.16
2023-01-23T02:00:57.099Z,99345.72
2023-01-23T02:03:01.376Z,99343.16
2023-01-23T02:05:07.726Z,99345.66
2023-01-23T02:07:16.495Z,99345.69
2023-01-23T02:09:22.448Z,99346.63
2023-01-23T02:11:27.225Z,99348.34
2023-01-23T02:13:33.765Z,99351.75
2023-01-23T02:15:36.945Z,99350.91
2023-01-23T02:17:40.323Z,99356.03
2023-01-23T02:19:47.959Z,99357.75
2023-01-23T02:21:55.620Z,99351.97
2023-01-23T02:24:13.524Z,99348.50
2023-01-23T02:26:21.494Z,99350.22
2023-01-23T02:28:24.671Z,99346.69
2023-01-23T02:30:28.076Z,99351.03
2023-01-23T02:32:32.231Z,99346.78
2023-01-23T02:34:35.306Z,99336.41
2023-01-23T02:36:38.329Z,99336.47
2023-01-23T02:38:58.018Z,99338.19
2023-01-23T02:41:03.924Z,99333.03
2023-01-23T02:43:11.147Z,99334.78
2023-01-23T02:45:18.618Z,99338.16
2023-01-23T02:47:23.076Z,99337.31
2023-01-23T02:49:26.239Z,99337.19
2023-01-23T02:51:29.389Z,99344.06
2023-01-23T02:53:32.389Z,99348.28
2023-01-23T02:55:37.800Z,99357.63
2023-01-23T02:57:40.827Z,99355.03
2023-01-23T03:00:02.803Z,99357.50
2023-01-23T03:02:08.073Z,99357.44
2023-01-23T03:04:11.095Z,99358.28
2023-01-23T03:06:14.755Z,99359.19
2023-01-23T03:08:17.859Z,99354.81
2023-01-23T03:10:21.832Z,99358.25
2023-01-23T03:12:24.951Z,99354.81
2023-01-23T03:14:31.717Z,99353.19
2023-01-23T03:16:38.417Z,99349.72
2023-01-23T03:18:53.456Z,99347.13
2023-01-23T03:21:01.886Z,99358.22
2023-01-23T03:23:04.947Z,99360.84
2023-01-23T03:25:08.558Z,99351.34
2023-01-23T03:27:11.538Z,99356.47
2023-01-23T03:29:37.712Z,99357.31
2023-01-23T03:31:42.625Z,99350.47
2023-01-23T03:33:45.659Z,99350.44
2023-01-23T03:35:50.069Z,99348.75
2023-01-23T03:37:53.251Z,99341.94
2023-01-23T03:40:14.063Z,99341.16
2023-01-23T03:42:17.290Z,99331.84
2023-01-23T03:44:22.018Z,99331.97
2023-01-23T03:46:25.758Z,99326.88
2023-01-23T03:48:30.277Z,99338.84
2023-01-23T03:50:33.607Z,99340.56
2023-01-23T03:52:37.977Z,99331.00
2023-01-23T03:54:42.238Z,99331.09
2023-01-23T03:56:45.980Z,99326.03
2023-01-23T03:59:05.671Z,99335.47
2023-01-23T04:01:10.542Z,99336.31
2023-01-23T04:03:16.137Z,99341.50
2023-01-23T04:05:20.553Z,99338.22
2023-01-23T04:07:23.610Z,99342.50
2023-01-23T04:09:28.010Z,99340.66
2023-01-23T04:11:32.802Z,99346.66
2023-01-23T04:13:36.342Z,99356.88
2023-01-23T04:15:39.472Z,99357.66
2023-01-23T04:17:43.319Z,99369.59
2023-01-23T04:19:46.307Z,99367.06
2023-01-23T04:21:51.044Z,99373.09
2023-01-23T04:23:53.980Z,99381.59
2023-01-23T04:25:57.083Z,99383.22
2023-01-23T04:28:00.151Z,99386.59
2023-01-23T04:30:03.619Z,99384.81
2023-01-23T04:32:09.525Z,99389.09
2023-01-23T04:34:16.579Z,99390.75
2023-01-23T04:36:20.074Z,99389.91
2023-01-23T04:38:25.437Z,99389.03
2023-01-23T04:40:28.920Z,99386.41
2023-01-23T04:42:35.269Z,99378.78
2023-01-23T04:44:47.742Z,99381.44
2023-01-23T04:47:13.795Z,99389.25
2023-01-23T04:49:16.923Z,99395.31
2023-01-23T04:51:20.028Z,99392.78
2023-01-23T04:53:24.444Z,99386.91
2023-01-23T04:55:34.853Z,99392.16
2023-01-23T04:57:40.905Z,99393.81
2023-01-23T04:59:54.844Z,99390.44
2023-01-23T05:01:58.542Z,99392.09
2023-01-23T05:04:01.932Z,99394.78
2023-01-23T05:06:05.519Z,99380.19
2023-01-23T05:08:09.123Z,99378.63
2023-01-23T05:10:14.428Z,99386.34
2023-01-23T05:12:18.638Z,99389.72
2023-01-23T05:14:25.164Z,99394.84
2023-01-23T05:16:28.246Z,99400.84
2023-01-23T05:18:49.900Z,99402.53
2023-01-23T05:20:53.154Z,99396.59
2023-01-23T05:22:58.411Z,99395.75
2023-01-23T05:25:20.754Z,99399.19
2023-01-23T05:27:26.666Z,99394.19
2023-01-23T05:29:30.572Z,99393.50
2023-01-23T05:31:39.150Z,99395.38
2023-01-23T05:34:05.422Z,99393.78
2023-01-23T05:36:09.235Z,99398.84
2023-01-23T05:38:13.718Z,99396.28
2023-01-23T05:40:20.674Z,99389.44
2023-01-23T05:42:42.155Z,99391.09
2023-01-23T05:45:06.198Z,99395.47
2023-01-23T05:47:15.786Z,99395.53
2023-01-23T05:49:19.503Z,99403.28
2023-01-23T05:51:23.355Z,99391.38
2023-01-23T05:53:27.427Z,99401.66
2023-01-23T05:55:31.840Z,99401.63
2023-01-23T05:57:36.187Z,99393.97
2023-01-23T05:59:54.357Z,99392.22
2023-01-23T06:02:17.731Z,99394.66
2023-01-23T06:04:55.911Z,99410.75
2023-01-23T06:07:06.192Z,99409.84
2023-01-23T06:09:09.370Z,99408.97
2023-01-23T06:11:14.600Z,99414.19
2023-01-23T06:13:17.700Z,99419.38
2023-01-23T06:15:20.703Z,99418.66
2023-01-23T06:17:23.765Z,99420.44
2023-01-23T06:19:27.745Z,99423.16
2023-01-23T06:21:30.903Z,99430.91
2023-01-23T06:23:34.790Z,99420.63
2023-01-23T06:25:38.003Z,99421.47
2023-01-23T06:27:45.133Z,99422.50
2023-01-23T06:29:49.415Z,99425.97
2023-01-23T06:31:52.508Z,99430.19
2023-01-23T06:33:57.061Z,99433.59
2023-01-23T06:36:07.133Z,99437.09
2023-01-23T06:38:10.446Z,99445.59
2023-01-23T06:40:14.472Z,99456.63
2023-01-23T06:42:23.992Z,99451.41
2023-01-23T06:44:29.669Z,99459.84
2023-01-23T06:46:32.861Z,99466.66
2023-01-23T06:48:35.913Z,99468.38
2023-01-23T06:50:38.965Z,99471.75
2023-01-23T06:52:42.006Z,99471.81
2023-01-23T06:54:45.078Z,99477.69
2023-01-23T06:56:49.373Z,99478.50
2023-01-23T06:58:52.946Z,99485.53
2023-01-23T07:01:11.715Z,99482.06
2023-01-23T07:03:33.338Z,99486.25
2023-01-23T07:05:39.454Z,99492.28
2023-01-23T07:07:42.489Z,99496.47
2023-01-23T07:09:45.682Z,99492.13
2023-01-23T07:11:55.524Z,99498.03
2023-01-23T07:13:58.554Z,99496.22
2023-01-23T07:16:03.628Z,99497.06
2023-01-23T07:18:08.185Z,99500.41
2023-01-23T07:20:12.348Z,99493.59
2023-01-23T07:22:23.974Z,99497.91
2023-01-23T07:24:28.555Z,99500.53
2023-01-23T07:26:31.563Z,99508.31
2023-01-23T07:28:34.598Z,99508.44
2023-01-23T07:30:37.607Z,99521.22
2023-01-23T07:32:40.755Z,99516.06
2023-01-23T07:34:45.193Z,99523.78
2023-01-23T07:36:48.110Z,99512.66
2023-01-23T07:38:51.085Z,99510.16
2023-01-23T07:40:54.320Z,99513.56
2023-01-23T07:42:58.055Z,99518.78
2023-01-23T07:45:01.051Z,99513.56
2023-01-23T07:47:04.270Z,99507.69
2023-01-23T07:49:07.339Z,99511.34
2023-01-23T07:51:11.869Z,99507.03
2023-01-23T07:53:14.882Z,99501.81
2023-01-23T07:55:18.585Z,99500.81
2023-01-23T07:57:21.632Z,99505.19
2023-01-23T07:59:24.725Z,99500.94
2023-01-23T08:01:27.926Z,99504.47
2023-01-23T08:03:31.083Z,99508.00
2023-01-23T08:05:34.148Z,99503.72
2023-01-23T08:07:38.448Z,99500.41
2023-01-23T08:09:41.510Z,99494.47
2023-01-23T08:11:44.454Z,99503.78
2023-01-23T08:13:50.067Z,99503.00
2023-01-23T08:15:53.385Z,99497.06
2023-01-23T08:17:56.453Z,99496.22
2023-01-23T08:19:59.428Z,99495.31
2023-01-23T08:22:02.404Z,99493.59
2023-01-23T08:24:07.660Z,99496.06
2023-01-23T08:26:14.516Z,99500.28
2023-01-23T08:28:17.588Z,99498.59
2023-01-23T08:30:20.950Z,99494.28
2023-01-23T08:32:24.197Z,99502.00
2023-01-23T08:34:27.440Z,99502.81
2023-01-23T08:36:30.638Z,99494.16
2023-01-23T08:38:34.141Z,99492.38
2023-01-23T08:40:38.555Z,99497.41
2023-01-23T08:42:41.586Z,99493.00
2023-01-23T08:44:44.636Z,99494.63
2023-01-23T08:46:47.773Z,99489.47
2023-01-23T08:48:50.878Z,99484.53
2023-01-23T08:51:00.724Z,99489.53
2023-01-23T08:53:03.824Z,99495.41
2023-01-23T08:55:08.166Z,99498.84
2023-01-23T08:57:12.725Z,99497.13
2023-01-23T08:59:15.810Z,99494.47
2023-01-23T09:01:20.283Z,99498.72
2023-01-23T09:03:23.439Z,99498.75
2023-01-23T09:05:26.491Z,99491.91
2023-01-23T09:07:29.556Z,99503.16
2023-01-23T09:09:32.536Z,99499.84
2023-01-23T09:11:35.561Z,99491.41
2023-01-23T09:13:40.101Z,99487.16
2023-01-23T09:15:43.083Z,99492.22
2023-01-23T09:17:46.085Z,99497.41
2023-01-23T09:19:49.042Z,99503.34
2023-01-23T09:21:54.040Z,99499.78
2023-01-23T09:23:57.998Z,99509.00
2023-01-23T09:26:04.128Z,99508.19
2023-01-23T09:28:07.209Z,99501.41
2023-01-23T09:30:13.055Z,99515.13
2023-01-23T09:32:16.129Z,99507.38
2023-01-23T09:34:19.328Z,99511.72
2023-01-23T09:36:37.489Z,99510.16
2023-01-23T09:38:44.492Z,99507.69
2023-01-23T09:40:51.029Z,99500.75
2023-01-23T09:42:54.992Z,99504.09
2023-01-23T09:45:03.401Z,99505.91
2023-01-23T09:47:12.721Z,99517.06
2023-01-23T09:49:21.050Z,99515.50
2023-01-23T09:51:28.473Z,99497.50
2023-01-23T09:53:37.348Z,99500.88
2023-01-23T09:55:42.421Z,99521.41
2023-01-23T09:57:49.275Z,99520.56
2023-01-23T10:00:00.095Z,99516.97
2023-01-23T10:02:04.004Z,99510.91
2023-01-23T10:04:11.972Z,99510.16
2023-01-23T10:06:23.173Z,99506.59
2023-01-23T10:08:32.355Z,99511.63
2023-01-23T10:11:00.295Z,99517.44
2023-01-23T10:13:09.115Z,99511.38
2023-01-23T10:15:23.348Z,99518.28
2023-01-23T10:17:31.306Z,99514.84
2023-01-23T10:19:44.087Z,99514.16
2023-01-23T10:21:51.377Z,99511.50
2023-01-23T10:24:03.076Z,99505.50
2023-01-23T10:26:06.053Z,99493.50
2023-01-23T10:28:23.598Z,99503.72
2023-01-23T10:30:29.419Z,99497.69
2023-01-23T10:34:47.439Z,99492.03
2023-01-23T10:37:12.566Z,99492.84
2023-01-23T10:39:18.141Z,99498.03
2023-01-23T10:41:23.322Z,99492.16
2023-01-23T10:43:27.910Z,99500.84
2023-01-23T10:45:31.540Z,99498.34
2023-01-23T10:47:38.726Z,99495.84
2023-01-23T10:49:45.644Z,99494.09
2023-01-23T10:51:48.799Z,99493.22
2023-01-23T10:54:19.310Z,99499.97
2023-01-23T10:56:29.382Z,99506.59
2023-01-23T10:58:38.133Z,99504.97
2023-01-23T11:00:46.602Z,99509.13
2023-01-23T11:02:49.641Z,99506.44
2023-01-23T11:04:54.073Z,99502.03
2023-01-23T11:07:06.796Z,99497.28
2023-01-23T11:09:20.422Z,99502.28
2023-01-23T11:11:25.791Z,99493.28
2023-01-23T11:13:30.195Z,99490.66
2023-01-23T11:15:36.584Z,99491.22
2023-01-23T11:17:39.767Z,99484.22
2023-01-23T11:19:43.377Z,99484.13
2023-01-23T11:21:55.653Z,99482.19
2023-01-23T11:24:14.301Z,99477.66
2023-01-23T11:26:33.252Z,99477.91
2023-01-23T11:28:48.043Z,99475.22
2023-01-23T11:31:03.756Z,99478.44
2023-01-23T11:33:22.993Z,99480.16
2023-01-23T11:35:31.359Z,99476.44
2023-01-23T11:37:37.911Z,99468.78
2023-01-23T11:39:49.302Z,99471.94
2023-01-23T11:41:53.126Z,99471.16
2023-01-23T11:43:56.163Z,99459.88
2023-01-23T11:46:23.025Z,99462.41
2023-01-23T11:48:38.335Z,99452.81
2023-01-23T11:50:54.822Z,99463.47
2023-01-23T11:53:05.021Z,99439.22
2023-01-23T11:55:22.117Z,99451.16
2023-01-23T11:57:32.073Z,99449.78
2023-01-23T11:59:47.140Z,99448.63
2023-01-23T12:02:05.292Z,99461.50
2023-01-23T12:04:41.833Z,99452.06
2023-01-23T12:07:08.821Z,99449.44
2023-01-23T12:09:16.586Z,99446.22
2023-01-23T12:11:22.250Z,99448.56
2023-01-23T12:13:42.775Z,99443.66
2023-01-23T12:15:49.957Z,99441.19
2023-01-23T12:17:57.168Z,99444.34
2023-01-23T12:20:19.550Z,99451.13
2023-01-23T12:22:29.163Z,99437.34
2023-01-23T12:24:42.470Z,99446.59
2023-01-23T12:26:56.073Z,99442.13
2023-01-23T12:29:11.517Z,99436.13
2023-01-23T12:31:29.395Z,99431.03
2023-01-23T12:33:56.528Z,99420.91
2023-01-23T12:36:15.229Z,99414.03
2023-01-23T12:38:27.514Z,99415.09
2023-01-23T12:40:34.886Z,99408.84
2023-01-23T12:42:42.256Z,99399.97
2023-01-23T12:44:51.709Z,99400.97
2023-01-23T12:46:59.124Z,99398.13
2023-01-23T12:49:07.266Z,99389.66
2023-01-23T12:51:15.292Z,99401.38
2023-01-23T12:53:20.118Z,99395.94
2023-01-23T12:55:26.174Z,99393.34
2023-01-23T12:58:06.874Z,99389.63
2023-01-23T13:00:20.032Z,99395.75
2023-01-23T13:02:30.451Z,99384.56
2023-01-23T13:04:54.826Z,99385.31
2023-01-23T13:07:05.709Z,99374.97
2023-01-23T13:09:18.832Z,99397.72
2023-01-23T13:11:44.934Z,99387.31
2023-01-23T13:13:49.712Z,99378.69
2023-01-23T13:16:11.707Z,99378.06
2023-01-23T13:18:24.028Z,99374.34
2023-01-23T13:20:48.152Z,99362.16
2023-01-23T13:22:51.567Z,99371.47
2023-01-23T13:25:14.130Z,99370.13
2023-01-23T13:27:40.623Z,99377.53
2023-01-23T13:29:51.294Z,99372.00
2023-01-23T13:32:22.063Z,99378.63
2023-01-23T13:34:39.174Z,99370.75
2023-01-23T13:36:42.934Z,99369.69
2023-01-23T13:39:02.617Z,99378.22
2023-01-23T13:41:28.970Z,99375.84
2023-01-23T13:43:44.127Z,99382.53
2023-01-23T13:45:49.047Z,99379.84
2023-01-23T14:20:40.193Z,99391.25
2023-01-23T14:22:44.942Z,99392.22
2023-01-23T14:24:50.013Z,99394.56
2023-01-23T14:26:55.222Z,99396.94
2023-01-23T14:29:00.521Z,99384.06
2023-01-23T14:31:05.634Z,99379.66
2023-01-23T14:33:13.303Z,99381.41
2023-01-23T14:35:23.338Z,99371.38
2023-01-23T14:40:11.735Z,99373.03
2023-01-23T14:42:23.781Z,99372.91
2023-01-23T14:44:30.725Z,99374.63
2023-01-23T14:46:36.929Z,99369.59
2023-01-23T14:48:42.896Z,99372.97
2023-01-23T14:50:47.358Z,99377.16
2023-01-23T14:52:58.242Z,99380.53
2023-01-23T14:55:07.779Z,99377.06
2023-01-23T14:57:12.501Z,99384.75
2023-01-23T14:59:20.359Z,99370.09
2023-01-23T15:01:23.551Z,99375.31
2023-01-23T15:03:40.218Z,99377.09
2023-01-23T15:05:59.547Z,99361.69
2023-01-23T15:08:06.019Z,99359.47
2023-01-23T15:10:15.353Z,99361.44
2023-01-23T15:12:18.952Z,99354.81
2023-01-23T15:14:25.600Z,99347.63
2023-01-23T15:16:33.973Z,99337.09
2023-01-23T15:18:37.828Z,99338.41
2023-01-23T15:20:42.830Z,99330.78
2023-01-23T15:22:47.560Z,99336.75
2023-01-23T15:24:50.565Z,99330.91
2023-01-23T15:27:05.403Z,99332.69
2023-01-23T15:29:19.332Z,99340.31
2023-01-23T15:31:25.711Z,99346.97
2023-01-23T15:33:30.977Z,99347.63
2023-01-23T15:35:34.629Z,99338.88
2023-01-23T15:37:37.907Z,99343.81
2023-01-23T15:39:51.987Z,99343.69
2023-01-23T15:41:57.716Z,99350.50
2023-01-23T15:44:00.741Z,99341.72
2023-01-23T15:46:03.819Z,99342.47
2023-01-23T15:48:07.856Z,99341.41
2023-01-23T15:50:14.067Z,99342.97
2023-01-23T15:52:21.296Z,99349.81
2023-01-23T15:54:27.437Z,99353.19
2023-01-23T15:56:33.282Z,99351.38
2023-01-23T15:58:36.271Z,99364.25
2023-01-23T16:00:40.375Z,99360.78
2023-01-23T16:02:55.163Z,99364.94
2023-01-23T16:05:00.823Z,99370.19
2023-01-23T16:07:08.146Z,99364.09
2023-01-23T16:09:16.904Z,99366.66
2023-01-23T16:11:20.266Z,99365.66
2023-01-23T16:13:24.723Z,99366.47
2023-01-23T16:15:29.816Z,99370.69
2023-01-23T16:17:33.233Z,99374.97
2023-01-23T16:19:36.283Z,99382.69
2023-01-23T16:21:39.662Z,99365.44
2023-01-23T16:23:47.543Z,99368.03
2023-01-23T16:25:52.480Z,99387.00
2023-01-23T16:27:55.976Z,99374.22
2023-01-23T16:30:00.749Z,99390.72
2023-01-23T16:32:04.275Z,99384.03
2023-01-23T16:34:07.498Z,99392.47
2023-01-23T16:36:14.466Z,99388.94
2023-01-23T16:38:21.535Z,99397.41
2023-01-23T16:40:26.466Z,99386.06
2023-01-23T16:42:29.752Z,99380.03
2023-01-23T16:44:32.826Z,99382.56
2023-01-23T16:46:37.355Z,99383.34
2023-01-23T16:48:41.112Z,99384.94
2023-01-23T16:50:47.255Z,99383.25
2023-01-23T16:52:56.294Z,99395.41
2023-01-23T16:54:59.474Z,99380.09
2023-01-23T16:57:03.261Z,99387.38
2023-01-23T16:59:07.622Z,99391.91
2023-01-23T17:01:15.224Z,99384.91
2023-01-23T17:03:23.486Z,99391.13
2023-01-23T17:05:26.584Z,99398.75
2023-01-23T17:07:29.612Z,99389.31
2023-01-23T17:09:32.827Z,99392.69
2023-01-23T17:11:37.884Z,99401.28
2023-01-23T17:13:41.112Z,99410.91
2023-01-23T17:15:44.419Z,99401.44
2023-01-23T17:17:48.106Z,99398.22
2023-01-23T17:19:52.644Z,99410.13
2023-01-23T17:21:55.793Z,99411.81
2023-01-23T17:23:58.905Z,99405.91
2023-01-23T17:26:02.013Z,99416.22
2023-01-23T17:28:12.903Z,99423.06
2023-01-23T17:30:17.543Z,99414.38
2023-01-23T17:32:27.988Z,99413.41
2023-01-23T17:34:48.628Z,99433.88
2023-01-23T17:36:55.345Z,99427.06
2023-01-23T17:38:59.529Z,99435.84
2023-01-23T17:41:04.596Z,99430.72
2023-01-23T17:43:07.705Z,99437.53
2023-01-23T17:45:14.999Z,99440.94
2023-01-23T17:47:18.329Z,99438.34
2023-01-23T17:49:31.119Z,99432.22
2023-01-23T17:51:34.406Z,99434.72
2023-01-23T17:53:38.839Z,99440.59
2023-01-23T17:55:43.703Z,99443.00
2023-01-23T17:57:47.197Z,99442.06
2023-01-23T17:59:50.304Z,99433.44
2023-01-23T18:01:53.495Z,99443.69
2023-01-23T18:03:56.612Z,99440.22
2023-01-23T18:05:59.697Z,99443.63
2023-01-23T18:08:02.665Z,99453.09
2023-01-23T18:10:08.405Z,99453.06
2023-01-23T18:12:14.773Z,99456.47
2023-01-23T18:14:38.307Z,99457.22
2023-01-23T18:16:45.150Z,99455.72
2023-01-23T18:18:52.981Z,99462.63
2023-01-23T18:20:56.675Z,99465.97
2023-01-23T18:23:00.719Z,99458.25
2023-01-23T18:25:04.523Z,99458.22
2023-01-23T18:27:20.449Z,99470.19
2023-01-23T18:29:35.961Z,99462.72
2023-01-23T18:31:45.188Z,99455.38
2023-01-23T18:33:57.020Z,99457.22
2023-01-23T18:36:18.397Z,99453.84
2023-01-23T18:38:26.552Z,99453.03
2023-01-23T18:40:31.833Z,99454.63
2023-01-23T18:42:39.365Z,99453.94
2023-01-23T18:44:43.834Z,99451.41
2023-01-23T18:46:47.302Z,99445.38
2023-01-23T18:48:51.155Z,99440.16
2023-01-23T18:51:03.326Z,99443.78
2023-01-23T18:53:16.504Z,99446.44
2023-01-23T18:55:26.762Z,99444.75
2023-01-23T18:57:41.955Z,99451.13
2023-01-23T18:59:50.008Z,99437.34
2023-01-23T19:01:55.217Z,99438.28
2023-01-23T19:03:58.977Z,99425.47
2023-01-23T19:06:02.764Z,99414.34
2023-01-23T19:08:06.860Z,99428.03
2023-01-23T19:10:15.802Z,99418.69
2023-01-23T19:12:26.534Z,99423.19
2023-01-23T19:14:55.016Z,99424.06
2023-01-23T19:17:03.658Z,99414.78
2023-01-23T19:19:16.072Z,99422.31
2023-01-23T19:21:25.086Z,99421.69
2023-01-23T19:23:36.476Z,99421.69
2023-01-23T19:25:39.762Z,99404.69
2023-01-23T19:27:43.137Z,99406.38
2023-01-23T19:29:46.635Z,99416.88
2023-01-23T19:32:04.265Z,99424.63
2023-01-23T19:34:08.808Z,99430.50
2023-01-23T19:36:12.939Z,99435.72
2023-01-23T19:38:16.393Z,99436.59
2023-01-23T19:40:19.788Z,99439.16
2023-01-23T19:42:22.928Z,99435.63
2023-01-23T19:44:28.797Z,99433.97
2023-01-23T19:46:33.391Z,99438.22
2023-01-23T19:48:37.944Z,99433.94
2023-01-23T19:50:41.696Z,99441.72
2023-01-23T19:52:45.397Z,99442.50
2023-01-23T19:54:48.572Z,99451.03
2023-01-23T19:56:51.868Z,99448.31
2023-01-23T19:58:56.240Z,99461.13
2023-01-23T20:00:59.462Z,99459.28
2023-01-23T20:03:02.606Z,99457.41
2023-01-23T20:05:07.845Z,99456.41
2023-01-23T20:07:10.947Z,99457.09
2023-01-23T20:09:15.398Z,99463.91
2023-01-23T20:11:18.689Z,99477.56
2023-01-23T20:13:21.836Z,99464.91
2023-01-23T20:15:26.214Z,99475.09
2023-01-23T20:17:29.245Z,99473.22
2023-01-23T20:19:32.317Z,99480.03
2023-01-23T20:21:36.852Z,99479.16
2023-01-23T20:23:40.025Z,99474.13
2023-01-23T20:25:43.190Z,99468.94
2023-01-23T20:27:46.311Z,99478.25
2023-01-23T20:29:51.753Z,99472.38
2023-01-23T20:31:55.042Z,99477.63
2023-01-23T20:33:58.141Z,99468.16
2023-01-23T20:36:01.196Z,99475.75
2023-01-23T20:38:05.666Z,99477.41
2023-01-23T20:40:10.636Z,99480.81
2023-01-23T20:42:13.778Z,99465.59
2023-01-23T20:44:16.911Z,99471.72
2023-01-23T20:46:20.161Z,99475.16
2023-01-23T20:48:23.520Z,99476.81
2023-01-23T20:50:26.867Z,99482.00
2023-01-23T20:52:47.792Z,99485.34
2023-01-23T20:54:52.270Z,99493.03
2023-01-23T20:56:57.250Z,99486.91
2023-01-23T20:59:18.258Z,99490.44
2023-01-23T21:01:23.037Z,99494.84
2023-01-23T21:03:26.161Z,99499.03
2023-01-23T21:05:29.174Z,99491.28
2023-01-23T21:07:33.020Z,99493.09
2023-01-23T21:09:36.322Z,99493.88
2023-01-23T21:11:40.908Z,99510.16
2023-01-23T21:13:44.089Z,99505.09
2023-01-23T21:15:57.311Z,99515.41
2023-01-23T21:18:00.697Z,99503.56
2023-01-23T21:20:03.838Z,99507.78
2023-01-23T21:22:07.647Z,99500.13
2023-01-23T21:24:10.905Z,99498.47
2023-01-23T21:26:13.976Z,99508.75
2023-01-23T21:28:18.313Z,99507.81
2023-01-23T21:30:21.430Z,99505.22
2023-01-23T21:32:24.415Z,99509.50
2023-01-23T21:34:27.683Z,99506.84
2023-01-23T21:36:31.186Z,99509.53
2023-01-23T21:38:34.214Z,99507.94
2023-01-23T21:40:40.201Z,99505.28
2023-01-23T21:42:43.343Z,99509.44
2023-01-23T21:44:48.082Z,99517.28
2023-01-23T21:46:51.059Z,99512.13
2023-01-23T21:48:54.011Z,99510.41
2023-01-23T21:51:04.882Z,99503.50
2023-01-23T21:53:08.492Z,99488.03
2023-01-23T21:55:11.595Z,99493.38
2023-01-23T21:57:14.600Z,99490.81
2023-01-23T21:59:17.753Z,99483.22
2023-01-23T22:01:32.715Z,99490.88
2023-01-23T22:03:36.419Z,99490.03
2023-01-23T22:05:39.492Z,99501.94
2023-01-23T22:07:42.596Z,99490.72
2023-01-23T22:09:45.707Z,99496.81
2023-01-23T22:11:49.608Z,99505.53
2023-01-23T22:13:52.723Z,99490.16
2023-01-23T22:15:57.754Z,99482.53
2023-01-23T22:18:02.047Z,99485.84
2023-01-23T22:20:06.398Z,99486.13
2023-01-23T22:22:10.078Z,99498.97
2023-01-23T22:24:13.237Z,99504.00
2023-01-23T22:26:16.500Z,99506.63
2023-01-23T22:28:19.702Z,99506.56
2023-01-23T22:30:22.826Z,99503.22
2023-01-23T22:32:26.139Z,99503.09
2023-01-23T22:34:30.548Z,99513.34
2023-01-23T22:36:33.809Z,99508.06
2023-01-23T22:38:36.841Z,99505.41
2023-01-23T22:40:40.239Z,99509.69
2023-01-23T22:42:43.206Z,99509.75
2023-01-23T22:44:46.165Z,99508.78
2023-01-23T22:46:51.255Z,99509.50
2023-01-23T22:48:54.417Z,99511.94
2023-01-23T22:51:01.975Z,99506.81
2023-01-23T22:53:05.083Z,99502.69
2023-01-23T22:55:08.892Z,99503.63
2023-01-23T22:57:11.994Z,99501.16
2023-01-23T22:59:14.998Z,99501.03
2023-01-23T23:01:18.334Z,99507.94
2023-01-23T23:03:22.391Z,99518.38
2023-01-23T23:05:28.136Z,99517.47
2023-01-23T23:07:32.579Z,99527.69
2023-01-23T23:09:35.624Z,99523.44
2023-01-23T23:11:40.184Z,99524.28
2023-01-23T23:13:43.474Z,99511.31
2023-01-23T23:15:46.416Z,99502.72
2023-01-23T23:17:49.433Z,99507.97
2023-01-23T23:19:52.456Z,99515.66
2023-01-23T23:21:55.536Z,99515.66
2023-01-23T23:24:01.114Z,99506.19
2023-01-23T23:26:05.633Z,99508.78
2023-01-23T23:28:08.621Z,99514.81
2023-01-23T23:30:12.662Z,99516.47
2023-01-23T23:32:15.802Z,99516.50
2023-01-23T23:34:18.888Z,99519.16
2023-01-23T23:36:22.021Z,99515.75
2023-01-23T23:38:25.078Z,99509.84
2023-01-23T23:40:29.586Z,99511.47
2023-01-23T23:42:32.527Z,99521.72
2023-01-23T23:44:35.541Z,99514.03
2023-01-23T23:46:38.559Z,99508.00
2023-01-23T23:48:43.549Z,99507.09
2023-01-23T23:50:46.565Z,99505.34
2023-01-23T23:52:49.591Z,99507.06
2023-01-23T23:54:52.581Z,99522.69
2023-01-23T23:56:56.969Z,99524.41
2023-01-23T23:59:00.239Z,99526.97
